Time;durP1;ratioP1;P1;durP2;ratioP2;P2;SDS_P1;SDS_P2;PMS_P1;PMS_P2;Temp;Humidity;BMP_temperature;BMP_pressure;BME280_temperature;BME280_humidity;BME280_pressure;Samples;Min_cycle;Max_cycle;Signal;HPM_P1;HPM_P2
2022/03/21 00:00:38;;;;;;;13.63;9.20;;;5.10;37.30;;;;;;5289417;28;20894;-50
2022/03/21 00:03:11;;;;;;;18.10;10.60;;;5.10;37.40;;;;;;5278010;27;20509;-49
2022/03/21 00:05:42;;;;;;;9.73;8.47;;;5.10;37.40;;;;;;5271732;28;20175;-49
2022/03/21 00:08:15;;;;;;;17.93;9.50;;;5.00;37.40;;;;;;5269349;28;20447;-49
2022/03/21 00:10:45;;;;;;;28.27;10.50;;;5.00;37.50;;;;;;5271424;27;20442;-52
2022/03/21 00:13:17;;;;;;;14.93;9.70;;;5.00;37.60;;;;;;5271267;28;20455;-50
2022/03/21 00:15:51;;;;;;;16.63;9.10;;;5.00;37.70;;;;;;5276566;28;20205;-47
2022/03/21 00:18:24;;;;;;;17.17;9.63;;;4.80;37.70;;;;;;5272140;28;20488;-51
2022/03/21 00:20:55;;;;;;;15.23;9.67;;;4.80;37.90;;;;;;5270392;27;20444;-52
2022/03/21 00:23:26;;;;;;;17.63;9.90;;;4.80;38.10;;;;;;5267224;28;20460;-47
2022/03/21 00:25:56;;;;;;;11.13;8.37;;;4.70;38.10;;;;;;5283936;28;20974;-48
2022/03/21 00:28:27;;;;;;;22.27;11.00;;;4.70;38.30;;;;;;5282415;28;20457;-49
2022/03/21 00:30:58;;;;;;;14.70;9.30;;;4.70;38.30;;;;;;5272001;28;20281;-47
2022/03/21 00:33:29;;;;;;;18.40;10.90;;;4.60;38.30;;;;;;5277033;28;20235;-48
2022/03/21 00:36:00;;;;;;;19.83;10.23;;;4.50;38.50;;;;;;5274247;28;20505;-49
2022/03/21 00:38:30;;;;;;;15.20;10.20;;;4.50;38.60;;;;;;5279764;28;20178;-47
2022/03/21 00:41:01;;;;;;;15.43;9.17;;;4.40;38.50;;;;;;5287141;28;20487;-48
2022/03/21 00:43:32;;;;;;;18.03;9.43;;;4.40;38.70;;;;;;5287895;27;20193;-48
2022/03/21 00:46:03;;;;;;;27.33;10.50;;;4.40;38.80;;;;;;5272112;27;20193;-48
2022/03/21 00:48:34;;;;;;;19.87;9.50;;;4.30;38.80;;;;;;5271939;28;20432;-48
2022/03/21 00:51:04;;;;;;;40.13;9.43;;;4.30;38.90;;;;;;5277883;28;20177;-48
2022/03/21 00:53:35;;;;;;;19.10;9.47;;;4.30;39.00;;;;;;5280394;28;20196;-46
2022/03/21 00:56:05;;;;;;;17.43;9.30;;;4.30;39.10;;;;;;5290350;28;20220;-47
2022/03/21 00:58:36;;;;;;;27.03;11.27;;;4.30;39.10;;;;;;5289451;28;20196;-47
2022/03/21 01:01:06;;;;;;;17.10;10.67;;;4.30;39.30;;;;;;5286456;28;20168;-49
2022/03/21 01:03:37;;;;;;;18.87;10.53;;;4.20;39.30;;;;;;5275795;28;20190;-48
2022/03/21 01:06:08;;;;;;;20.73;11.43;;;4.20;39.40;;;;;;5269537;28;20174;-47
2022/03/21 01:08:38;;;;;;;33.50;12.40;;;4.10;39.60;;;;;;5287243;28;20226;-47
2022/03/21 01:11:09;;;;;;;22.73;11.50;;;4.10;39.70;;;;;;5281558;28;20438;-47
2022/03/21 01:13:42;;;;;;;19.77;10.90;;;4.10;39.80;;;;;;5279106;28;20204;-48
2022/03/21 01:16:13;;;;;;;25.33;10.97;;;4.00;39.80;;;;;;5282289;28;20222;-47
2022/03/21 01:18:46;;;;;;;21.10;10.40;;;4.00;40.00;;;;;;5282979;28;20535;-48
2022/03/21 01:21:17;;;;;;;21.17;11.23;;;4.00;40.00;;;;;;5281575;28;20450;-49
2022/03/21 01:23:47;;;;;;;19.77;10.30;;;3.90;40.00;;;;;;5288071;27;20541;-48
2022/03/21 01:26:18;;;;;;;16.30;10.07;;;3.90;40.10;;;;;;5288174;28;20231;-46
2022/03/21 01:28:48;;;;;;;24.30;9.70;;;3.90;40.20;;;;;;5287281;28;20208;-48
2022/03/21 01:31:19;;;;;;;16.07;8.90;;;3.90;40.40;;;;;;5285916;28;20185;-47
2022/03/21 01:33:49;;;;;;;14.33;8.90;;;3.80;40.30;;;;;;5273986;28;20200;-48
2022/03/21 01:36:20;;;;;;;13.93;9.90;;;3.80;40.50;;;;;;5269372;28;20209;-48
2022/03/21 01:38:51;;;;;;;17.93;9.60;;;3.80;40.50;;;;;;5277280;28;20637;-47
2022/03/21 01:41:21;;;;;;;15.80;9.37;;;3.80;40.50;;;;;;5274517;28;20177;-47
2022/03/21 01:44:04;;;;;;;14.10;8.90;;;3.80;40.50;;;;;;5271824;28;20201;-47
2022/03/21 01:46:36;;;;;;;9.67;7.80;;;3.70;40.40;;;;;;5265921;28;20180;-48
2022/03/21 01:49:09;;;;;;;16.10;9.63;;;3.70;40.40;;;;;;5273909;28;20581;-49
2022/03/21 01:51:43;;;;;;;22.97;9.20;;;3.70;40.50;;;;;;5271343;28;20435;-49
2022/03/21 01:57:04;;;;;;;20.60;9.73;;;3.70;40.60;;;;;;5269532;28;20813;-48
2022/03/21 01:59:36;;;;;;;16.57;9.73;;;3.60;40.70;;;;;;5270690;28;20415;-48
2022/03/21 02:02:07;;;;;;;17.00;9.30;;;3.60;40.90;;;;;;5284608;28;20450;-49
2022/03/21 02:04:37;;;;;;;13.50;9.60;;;3.50;40.90;;;;;;5289036;28;20434;-47
2022/03/21 02:07:08;;;;;;;18.00;9.47;;;3.50;41.00;;;;;;5282880;28;20174;-48
2022/03/21 02:09:41;;;;;;;18.73;10.03;;;3.50;41.10;;;;;;5276411;27;20173;-49
2022/03/21 02:12:12;;;;;;;18.23;9.70;;;3.50;41.00;;;;;;5271319;27;20220;-49
2022/03/21 02:14:43;;;;;;;15.40;9.50;;;3.50;41.20;;;;;;5288234;28;20462;-48
2022/03/21 02:17:18;;;;;;;15.23;9.70;;;3.50;41.20;;;;;;5273748;28;20427;-49
2022/03/21 02:19:50;;;;;;;17.00;9.10;;;3.50;41.20;;;;;;5288005;28;20183;-48
2022/03/21 02:22:32;;;;;;;19.73;10.00;;;3.50;41.20;;;;;;5287301;27;20516;-47
2022/03/21 02:25:25;;;;;;;18.47;10.70;;;3.40;41.30;;;;;;5272942;28;20435;-48
2022/03/21 02:28:01;;;;;;;17.77;10.13;;;3.40;41.30;;;;;;5277223;28;20434;-48
2022/03/21 02:30:36;;;;;;;19.23;9.90;;;3.30;41.40;;;;;;5288613;28;20430;-48
2022/03/21 02:33:07;;;;;;;16.70;9.40;;;3.30;41.50;;;;;;5284473;28;20766;-48
2022/03/21 02:35:39;;;;;;;20.13;10.57;;;3.30;41.60;;;;;;5288087;28;21046;-49
2022/03/21 02:38:10;;;;;;;14.77;9.60;;;3.30;41.70;;;;;;5279167;28;20948;-49
2022/03/21 02:40:41;;;;;;;19.03;8.97;;;3.20;41.60;;;;;;5285759;27;20427;-48
2022/03/21 02:43:12;;;;;;;14.33;8.47;;;3.20;41.70;;;;;;5279574;28;20447;-45
2022/03/21 02:45:42;;;;;;;14.03;9.87;;;3.20;41.70;;;;;;5275749;28;20186;-45
2022/03/21 02:48:14;;;;;;;18.63;9.80;;;3.20;41.60;;;;;;5274804;28;20192;-46
2022/03/21 02:51:01;;;;;;;15.13;9.53;;;3.20;41.60;;;;;;5289296;28;20173;-46
2022/03/21 02:53:35;;;;;;;15.40;10.07;;;3.10;41.40;;;;;;5272184;28;20656;-47
2022/03/21 02:56:05;;;;;;;16.23;10.10;;;3.10;41.50;;;;;;5281568;28;20461;-45
2022/03/21 02:58:36;;;;;;;19.30;10.10;;;3.10;41.60;;;;;;5257760;28;20434;-44
2022/03/21 03:01:12;;;;;;;17.50;10.27;;;3.00;41.70;;;;;;5259403;28;20540;-45
2022/03/21 03:03:44;;;;;;;21.40;11.63;;;3.00;41.70;;;;;;5287063;27;20196;-46
2022/03/21 03:06:14;;;;;;;18.57;10.37;;;3.00;42.00;;;;;;5273449;27;20662;-45
2022/03/21 03:08:45;;;;;;;16.00;10.23;;;3.00;42.10;;;;;;5288152;28;20518;-48
2022/03/21 03:11:16;;;;;;;18.23;10.97;;;2.90;42.10;;;;;;5284474;28;20185;-45
2022/03/21 03:13:46;;;;;;;16.20;10.00;;;2.90;42.10;;;;;;5290919;28;20218;-45
2022/03/21 03:16:17;;;;;;;22.67;11.50;;;2.80;42.20;;;;;;5293329;27;20225;-44
2022/03/21 03:18:48;;;;;;;18.73;10.33;;;2.80;42.50;;;;;;5279570;27;20185;-46
2022/03/21 03:21:23;;;;;;;18.60;11.57;;;2.80;42.70;;;;;;5271672;28;20274;-45
2022/03/21 03:23:53;;;;;;;16.37;10.43;;;2.70;42.70;;;;;;5289795;28;20466;-45
2022/03/21 03:26:24;;;;;;;20.43;11.87;;;2.70;42.90;;;;;;5284945;28;20535;-47
2022/03/21 03:28:55;;;;;;;19.83;11.87;;;2.70;43.00;;;;;;5279020;27;20522;-45
2022/03/21 03:31:26;;;;;;;15.40;10.17;;;2.70;43.10;;;;;;5279040;27;20194;-47
2022/03/21 03:33:57;;;;;;;23.40;12.80;;;2.70;43.10;;;;;;5291821;28;20687;-45
2022/03/21 03:36:28;;;;;;;21.50;11.97;;;2.70;43.10;;;;;;5275311;28;20475;-46
2022/03/21 03:38:59;;;;;;;19.17;12.00;;;2.60;43.00;;;;;;5280783;28;20441;-46
2022/03/21 03:41:30;;;;;;;24.17;12.27;;;2.70;43.10;;;;;;5280297;27;20533;-45
2022/03/21 03:44:01;;;;;;;19.43;11.27;;;2.60;42.90;;;;;;5273639;27;20467;-47
2022/03/21 03:46:31;;;;;;;24.03;12.80;;;2.70;43.10;;;;;;5276206;28;20444;-45
2022/03/21 03:49:02;;;;;;;26.87;12.63;;;2.70;43.20;;;;;;5288864;28;20267;-45
2022/03/21 03:51:32;;;;;;;23.83;12.40;;;2.60;43.20;;;;;;5290196;27;20181;-46
2022/03/21 03:54:03;;;;;;;30.17;12.40;;;2.60;43.20;;;;;;5284795;28;20242;-45
2022/03/21 03:56:33;;;;;;;19.30;12.47;;;2.50;43.40;;;;;;5280444;28;20170;-44
2022/03/21 03:59:04;;;;;;;22.10;12.60;;;2.50;43.60;;;;;;5287576;27;20209;-46
2022/03/21 04:01:35;;;;;;;22.00;12.80;;;2.50;43.60;;;;;;5276533;28;20670;-46
2022/03/21 04:04:05;;;;;;;26.43;12.37;;;2.50;43.60;;;;;;5274779;28;20197;-46
2022/03/21 04:06:36;;;;;;;35.20;12.80;;;2.50;43.70;;;;;;5277577;28;20213;-46
2022/03/21 04:09:06;;;;;;;23.63;12.17;;;2.50;43.60;;;;;;5269621;28;20213;-45
2022/03/21 04:11:37;;;;;;;20.50;13.50;;;2.50;43.60;;;;;;5281167;28;20598;-47
2022/03/21 04:14:07;;;;;;;23.33;12.80;;;2.50;43.60;;;;;;5285436;28;20184;-46
2022/03/21 04:16:43;;;;;;;25.60;12.80;;;2.50;43.60;;;;;;5287110;27;20200;-46
2022/03/21 04:19:14;;;;;;;26.67;13.40;;;2.40;43.50;;;;;;5289265;28;20267;-48
2022/03/21 04:21:44;;;;;;;23.83;12.63;;;2.40;43.50;;;;;;5278763;27;20439;-49
2022/03/21 04:24:15;;;;;;;25.87;13.17;;;2.40;43.60;;;;;;5270672;28;20207;-49
2022/03/21 04:26:45;;;;;;;23.90;12.47;;;2.40;43.60;;;;;;5269986;28;20261;-51
2022/03/21 04:29:16;;;;;;;26.40;13.43;;;2.40;43.50;;;;;;5281060;28;20185;-50
2022/03/21 04:31:46;;;;;;;23.47;11.87;;;2.40;43.50;;;;;;5277110;27;20629;-50
2022/03/21 04:34:17;;;;;;;24.23;13.57;;;2.40;43.40;;;;;;5286932;28;20176;-50
2022/03/21 04:36:48;;;;;;;22.00;13.00;;;2.30;43.40;;;;;;5263715;28;20177;-49
2022/03/21 04:39:18;;;;;;;19.40;12.10;;;2.40;43.40;;;;;;5277939;27;20196;-49
2022/03/21 04:41:49;;;;;;;27.40;12.77;;;2.30;43.40;;;;;;5278564;28;20426;-49
2022/03/21 04:44:19;;;;;;;25.10;14.20;;;2.40;43.50;;;;;;5279956;27;20200;-52
2022/03/21 04:46:50;;;;;;;29.27;12.93;;;2.30;43.40;;;;;;5275913;28;20383;-51
2022/03/21 04:49:20;;;;;;;29.63;13.60;;;2.30;43.30;;;;;;5281387;28;20213;-49
2022/03/21 04:51:51;;;;;;;23.63;12.77;;;2.40;43.30;;;;;;5279784;28;20223;-51
2022/03/21 04:54:22;;;;;;;28.03;12.90;;;2.40;43.40;;;;;;5277275;28;20197;-48
2022/03/21 04:56:52;;;;;;;21.57;12.93;;;2.40;43.10;;;;;;5280043;28;20200;-48
2022/03/21 04:59:23;;;;;;;24.00;13.73;;;2.40;43.10;;;;;;5273928;27;20181;-50
2022/03/21 05:01:53;;;;;;;32.63;13.27;;;2.40;43.20;;;;;;5287150;28;20185;-48
2022/03/21 05:04:23;;;;;;;24.73;11.97;;;2.30;43.20;;;;;;5270340;28;20668;-48
2022/03/21 05:06:54;;;;;;;30.80;13.30;;;2.40;43.30;;;;;;5282466;28;20219;-47
2022/03/21 05:09:24;;;;;;;25.87;13.03;;;2.40;43.20;;;;;;5283334;28;20193;-47
2022/03/21 05:11:55;;;;;;;25.13;12.77;;;2.30;43.30;;;;;;5275167;27;20264;-49
2022/03/21 05:14:25;;;;;;;23.97;12.17;;;2.30;43.30;;;;;;5280963;27;20232;-48
2022/03/21 05:16:56;;;;;;;21.33;12.40;;;2.30;43.40;;;;;;5288861;27;20275;-48
2022/03/21 05:19:27;;;;;;;24.73;11.93;;;2.30;43.30;;;;;;5285802;28;20183;-47
2022/03/21 05:21:58;;;;;;;19.67;10.90;;;2.40;43.30;;;;;;5275800;27;20285;-47
2022/03/21 05:35:55;;;;;;;22.60;12.77;;;2.50;43.10;;;;;;5268995;28;20470;-49
2022/03/21 05:38:28;;;;;;;20.90;11.87;;;2.50;43.10;;;;;;5267227;28;20794;-49
2022/03/21 05:41:00;;;;;;;22.27;11.80;;;2.50;43.00;;;;;;5285728;28;20417;-50
2022/03/21 05:43:32;;;;;;;27.13;13.50;;;2.60;43.10;;;;;;5275164;28;20438;-48
2022/03/21 05:46:03;;;;;;;21.20;11.23;;;2.70;43.00;;;;;;5277747;28;20527;-46
2022/03/21 05:51:44;;;;;;;20.83;12.43;;;2.90;42.40;;;;;;5230298;28;20530;-49
2022/03/21 05:54:14;;;;;;;22.83;12.90;;;3.20;41.80;;;;;;5245787;28;20538;-47
2022/03/21 05:56:45;;;;;;;23.50;11.77;;;3.50;41.90;;;;;;5249851;28;20573;-47
2022/03/21 06:02:04;;;;;;;20.20;12.00;;;4.10;40.00;;;;;;5265664;28;20683;-48
2022/03/21 06:04:35;;;;;;;23.43;11.83;;;4.20;39.40;;;;;;5279687;28;20438;-47
2022/03/21 06:07:05;;;;;;;21.60;12.47;;;4.10;39.20;;;;;;5273731;28;20177;-48
2022/03/21 06:09:36;;;;;;;24.90;13.17;;;4.10;39.10;;;;;;5275477;28;20196;-47
2022/03/21 06:12:07;;;;;;;21.43;11.97;;;4.20;39.30;;;;;;5276782;28;20300;-48
2022/03/21 06:14:37;;;;;;;21.60;11.63;;;4.70;39.00;;;;;;5287450;28;20196;-46
2022/03/21 06:17:08;;;;;;;27.47;13.77;;;5.80;37.70;;;;;;5289398;28;20433;-46
2022/03/21 06:19:38;;;;;;;21.70;12.57;;;6.70;35.50;;;;;;5281390;28;20169;-46
2022/03/21 06:22:09;;;;;;;27.27;14.87;;;7.40;34.20;;;;;;5287366;28;20755;-50
2022/03/21 06:24:39;;;;;;;28.13;13.20;;;7.90;33.10;;;;;;5280133;28;20181;-50
2022/03/21 06:27:10;;;;;;;21.93;12.60;;;8.30;32.20;;;;;;5285361;28;20557;-50
2022/03/21 06:29:42;;;;;;;29.67;13.80;;;8.50;31.40;;;;;;5287057;28;20183;-49
2022/03/21 06:32:14;;;;;;;26.13;14.33;;;8.80;31.20;;;;;;5287112;28;20356;-49
2022/03/21 06:34:44;;;;;;;25.23;13.10;;;9.10;30.60;;;;;;5287218;28;21004;-49
2022/03/21 06:37:15;;;;;;;31.00;13.83;;;9.20;30.20;;;;;;5284849;28;20522;-50
2022/03/21 06:39:46;;;;;;;25.93;14.07;;;9.40;30.00;;;;;;5269318;28;20492;-51
2022/03/21 06:42:21;;;;;;;30.03;13.40;;;9.70;29.80;;;;;;5276536;28;20496;-50
2022/03/21 06:44:53;;;;;;;26.93;12.23;;;10.00;28.60;;;;;;5277228;28;20541;-50
2022/03/21 06:47:23;;;;;;;31.00;14.73;;;10.40;28.10;;;;;;5286436;28;20523;-49
2022/03/21 06:49:54;;;;;;;28.43;13.97;;;10.90;27.60;;;;;;5287889;27;20552;-49
2022/03/21 06:52:25;;;;;;;28.10;14.87;;;11.20;27.80;;;;;;5286958;28;20225;-48
2022/03/21 06:54:55;;;;;;;27.70;13.47;;;11.50;26.90;;;;;;5288756;28;20199;-50
2022/03/21 06:57:26;;;;;;;24.20;13.90;;;11.40;26.70;;;;;;5291355;27;20437;-49
2022/03/21 06:59:56;;;;;;;25.90;13.10;;;11.60;26.40;;;;;;5284552;27;20627;-50
2022/03/21 07:02:28;;;;;;;21.07;12.37;;;11.60;26.40;;;;;;5284438;28;20202;-49
2022/03/21 07:04:59;;;;;;;26.73;14.03;;;11.50;26.20;;;;;;5282532;27;20168;-49
2022/03/21 07:07:30;;;;;;;26.03;13.20;;;11.50;26.60;;;;;;5278966;28;20517;-47
2022/03/21 07:10:01;;;;;;;22.60;12.63;;;11.60;26.40;;;;;;5287720;28;20183;-50
2022/03/21 07:12:35;;;;;;;22.87;13.17;;;11.90;26.10;;;;;;5277097;27;20218;-49
2022/03/21 07:15:06;;;;;;;20.87;13.50;;;12.50;25.50;;;;;;5290971;27;20476;-49
2022/03/21 07:17:37;;;;;;;22.33;12.90;;;12.80;25.70;;;;;;5290378;28;20492;-51
2022/03/21 07:20:10;;;;;;;23.80;11.83;;;13.00;24.70;;;;;;5287060;28;20432;-51
2022/03/21 07:22:40;;;;;;;22.77;12.30;;;13.40;24.50;;;;;;5289543;28;20266;-51
2022/03/21 07:25:11;;;;;;;23.80;12.57;;;13.70;24.30;;;;;;5282480;27;20431;-52
2022/03/21 07:27:45;;;;;;;24.67;12.50;;;14.30;23.60;;;;;;5281196;27;20204;-49
2022/03/21 07:30:17;;;;;;;20.57;13.50;;;14.60;23.40;;;;;;5287267;27;20212;-51
2022/03/21 07:32:47;;;;;;;19.53;11.23;;;14.50;22.80;;;;;;5288929;27;20450;-48
2022/03/21 07:35:18;;;;;;;38.30;12.80;;;14.40;22.70;;;;;;5285772;27;20470;-51
2022/03/21 07:37:53;;;;;;;13.73;10.00;;;14.10;22.70;;;;;;5283364;28;20173;-49
2022/03/21 07:40:25;;;;;;;20.60;11.90;;;14.10;23.00;;;;;;5288456;28;20640;-49
2022/03/21 07:42:55;;;;;;;17.93;9.30;;;14.30;22.70;;;;;;5286789;27;20516;-51
2022/03/21 07:48:15;;;;;;;19.07;10.00;;;14.00;22.60;;;;;;5285411;28;20178;-50
2022/03/21 07:50:45;;;;;;;17.13;10.53;;;14.30;22.30;;;;;;5287025;28;20430;-49
2022/03/21 07:53:16;;;;;;;19.53;9.90;;;14.80;22.20;;;;;;5281392;28;20193;-49
2022/03/21 07:55:47;;;;;;;13.43;9.73;;;14.80;21.90;;;;;;5288895;28;20695;-51
2022/03/21 07:58:17;;;;;;;22.07;10.80;;;15.00;22.00;;;;;;5285739;28;20195;-50
2022/03/21 08:00:48;;;;;;;20.87;9.73;;;14.60;21.50;;;;;;5287805;27;20512;-49
2022/03/21 08:03:19;;;;;;;25.80;10.03;;;14.10;22.20;;;;;;5281669;28;20205;-49
2022/03/21 08:05:50;;;;;;;15.60;9.53;;;13.60;22.50;;;;;;5275469;27;20180;-49
2022/03/21 08:08:21;;;;;;;15.57;10.13;;;13.20;23.20;;;;;;5284787;28;20419;-52
2022/03/21 08:10:52;;;;;;;20.73;10.10;;;13.10;23.40;;;;;;5286306;28;20593;-51
2022/03/21 08:13:22;;;;;;;30.67;8.67;;;12.30;23.70;;;;;;5288290;27;20560;-49
2022/03/21 08:15:53;;;;;;;13.53;8.93;;;11.70;24.50;;;;;;5289103;28;20288;-50
2022/03/21 08:18:25;;;;;;;26.83;8.40;;;10.70;25.20;;;;;;5284610;28;20169;-51
2022/03/21 08:20:55;;;;;;;14.50;9.70;;;10.20;25.80;;;;;;5277673;27;20213;-49
2022/03/21 08:23:26;;;;;;;27.17;9.37;;;9.90;26.90;;;;;;5287709;28;20487;-52
2022/03/21 08:25:59;;;;;;;14.10;9.63;;;9.50;26.90;;;;;;5275092;28;20573;-51
2022/03/21 08:28:30;;;;;;;18.47;7.63;;;9.00;27.10;;;;;;5289004;27;20204;-50
2022/03/21 08:31:00;;;;;;;15.67;10.30;;;8.90;27.40;;;;;;5284279;28;20434;-51
2022/03/21 08:33:31;;;;;;;13.60;8.60;;;8.80;27.70;;;;;;5287721;28;20208;-51
2022/03/21 08:36:02;;;;;;;14.57;8.70;;;8.80;27.50;;;;;;5282982;28;20197;-51
2022/03/21 08:38:32;;;;;;;13.17;8.30;;;8.90;27.50;;;;;;5287343;27;20597;-52
2022/03/21 08:41:03;;;;;;;15.30;8.30;;;9.00;27.50;;;;;;5288659;28;20525;-49
2022/03/21 08:43:33;;;;;;;14.03;7.83;;;9.00;27.60;;;;;;5289690;28;20189;-52
2022/03/21 08:46:04;;;;;;;21.47;8.60;;;8.90;27.60;;;;;;5288453;27;20184;-50
2022/03/21 08:51:25;;;;;;;12.13;7.70;;;8.50;27.90;;;;;;5283194;28;20213;-51
2022/03/21 08:53:56;;;;;;;16.63;7.50;;;8.50;27.90;;;;;;5283535;28;20887;-51
2022/03/21 08:56:28;;;;;;;14.47;8.80;;;8.60;28.00;;;;;;5285883;28;20212;-49
2022/03/21 08:58:58;;;;;;;13.33;8.13;;;8.60;27.70;;;;;;5283697;28;20207;-51
2022/03/21 09:01:30;;;;;;;12.47;7.80;;;8.60;27.70;;;;;;5288844;27;20860;-50
2022/03/21 09:04:01;;;;;;;13.40;8.13;;;8.70;28.00;;;;;;5284350;28;20200;-51
2022/03/21 09:06:32;;;;;;;11.13;8.00;;;8.80;27.40;;;;;;5286940;28;20435;-50
2022/03/21 09:09:03;;;;;;;18.00;8.23;;;8.90;27.40;;;;;;5288293;28;20441;-50
2022/03/21 09:11:34;;;;;;;12.17;7.07;;;8.90;27.50;;;;;;5280859;28;20212;-52
2022/03/21 09:14:07;;;;;;;18.70;7.37;;;9.00;27.30;;;;;;5284280;28;20439;-50
2022/03/21 09:16:42;;;;;;;12.07;7.53;;;8.90;27.00;;;;;;5277657;28;20209;-49
2022/03/21 09:19:13;;;;;;;12.40;7.00;;;9.00;26.90;;;;;;5276285;28;20461;-52
2022/03/21 09:21:44;;;;;;;10.60;7.57;;;9.00;26.70;;;;;;5277521;28;20431;-51
2022/03/21 09:24:14;;;;;;;9.73;6.70;;;8.90;27.00;;;;;;5271125;28;20443;-50
2022/03/21 09:26:45;;;;;;;14.77;6.47;;;9.00;27.10;;;;;;5274290;27;20703;-51
2022/03/21 09:29:16;;;;;;;9.20;6.70;;;9.00;26.30;;;;;;5282436;27;20495;-51
2022/03/21 09:31:48;;;;;;;9.43;6.80;;;9.10;26.30;;;;;;5284172;28;20643;-50
2022/03/21 09:34:19;;;;;;;15.83;6.97;;;9.20;26.40;;;;;;5287451;28;20466;-49
2022/03/21 09:36:50;;;;;;;7.53;6.07;;;9.20;26.20;;;;;;5280416;28;20509;-50
2022/03/21 09:39:21;;;;;;;11.90;5.97;;;9.40;26.20;;;;;;5270461;28;20187;-51
2022/03/21 09:41:52;;;;;;;12.50;7.17;;;9.40;25.90;;;;;;5284058;28;20431;-50
2022/03/21 09:44:23;;;;;;;14.53;7.03;;;9.40;25.60;;;;;;5276402;28;20622;-51
2022/03/21 09:46:55;;;;;;;9.03;6.93;;;9.40;25.60;;;;;;5288037;28;20514;-51
2022/03/21 09:49:30;;;;;;;9.63;6.60;;;9.60;25.90;;;;;;5283045;28;20503;-51
2022/03/21 09:52:00;;;;;;;7.97;6.27;;;9.70;25.80;;;;;;5284577;28;20446;-50
2022/03/21 09:54:32;;;;;;;8.07;6.67;;;9.70;25.60;;;;;;5286338;28;20489;-50
2022/03/21 09:57:02;;;;;;;13.30;6.50;;;9.60;25.60;;;;;;5283597;28;20226;-50
2022/03/21 09:59:33;;;;;;;17.63;6.37;;;9.70;26.00;;;;;;5285582;28;20889;-51
2022/03/21 10:02:04;;;;;;;12.20;6.43;;;9.80;25.80;;;;;;5280394;28;20209;-50
2022/03/21 10:04:34;;;;;;;10.17;6.43;;;9.70;25.60;;;;;;5285781;28;20322;-51
2022/03/21 10:07:05;;;;;;;10.23;6.93;;;9.70;25.70;;;;;;5287190;28;20513;-48
2022/03/21 10:09:36;;;;;;;10.30;7.63;;;9.80;25.90;;;;;;5280867;28;20190;-51
2022/03/21 10:12:10;;;;;;;11.17;7.03;;;9.80;25.80;;;;;;5276180;28;20202;-53
2022/03/21 10:14:42;;;;;;;9.00;7.27;;;9.90;25.70;;;;;;5283428;28;20469;-49
2022/03/21 10:17:20;;;;;;;10.63;7.43;;;9.90;25.80;;;;;;5274202;28;20412;-50
2022/03/21 10:19:52;;;;;;;14.53;8.23;;;10.00;25.40;;;;;;5274276;28;20423;-49
2022/03/21 10:22:37;;;;;;;16.63;7.57;;;10.20;25.30;;;;;;5275316;28;20466;-50
2022/03/21 10:25:11;;;;;;;9.00;7.03;;;10.30;25.20;;;;;;5279896;28;21022;-51
2022/03/21 10:27:44;;;;;;;10.37;6.60;;;10.50;25.00;;;;;;5283645;28;20791;-52
2022/03/21 10:30:24;;;;;;;12.53;6.97;;;10.60;24.80;;;;;;5289694;28;20449;-52
2022/03/21 10:32:57;;;;;;;10.03;6.90;;;10.60;24.60;;;;;;5290471;27;20914;-50
2022/03/21 10:35:29;;;;;;;14.60;6.83;;;10.70;24.80;;;;;;5291907;28;20516;-51
2022/03/21 10:38:02;;;;;;;13.43;7.37;;;10.70;24.60;;;;;;5286831;28;20495;-52
2022/03/21 10:40:34;;;;;;;11.97;6.70;;;10.90;24.40;;;;;;5288989;28;20426;-53
2022/03/21 10:43:06;;;;;;;11.93;6.60;;;10.90;24.20;;;;;;5288468;28;20442;-51
2022/03/21 10:45:44;;;;;;;12.30;7.63;;;11.00;24.30;;;;;;5290374;27;20529;-49
2022/03/21 10:48:17;;;;;;;12.10;6.97;;;11.00;23.60;;;;;;5291382;28;20759;-50
2022/03/21 10:50:53;;;;;;;8.73;6.13;;;11.00;23.70;;;;;;5289391;28;20434;-48
2022/03/21 10:53:45;;;;;;;8.13;6.83;;;10.90;23.80;;;;;;5292263;28;20445;-47
2022/03/21 10:56:15;;;;;;;11.50;6.80;;;10.90;23.70;;;;;;5286633;28;20511;-51
2022/03/21 10:58:47;;;;;;;13.80;7.50;;;10.90;23.40;;;;;;5285436;28;20460;-51
2022/03/21 11:01:27;;;;;;;10.43;7.17;;;10.90;23.40;;;;;;5289210;27;20177;-51
2022/03/21 11:04:00;;;;;;;8.23;6.60;;;10.80;23.40;;;;;;5280886;27;20512;-51
2022/03/21 11:06:31;;;;;;;8.77;6.10;;;10.80;23.70;;;;;;5269608;28;20478;-50
2022/03/21 11:09:02;;;;;;;9.70;6.37;;;10.60;23.70;;;;;;5286771;27;20474;-51
2022/03/21 11:11:34;;;;;;;12.40;6.20;;;10.70;23.90;;;;;;5283904;28;20263;-50
2022/03/21 11:14:05;;;;;;;8.00;6.50;;;10.80;24.00;;;;;;5290737;28;20495;-51
2022/03/21 11:16:38;;;;;;;11.23;7.53;;;11.00;24.10;;;;;;5285985;28;20492;-52
2022/03/21 11:19:09;;;;;;;14.80;6.50;;;11.00;23.90;;;;;;5278738;28;20882;-51
2022/03/21 11:21:42;;;;;;;16.10;6.93;;;11.00;23.90;;;;;;5283114;27;20463;-51
2022/03/21 11:24:14;;;;;;;13.90;7.10;;;11.00;23.80;;;;;;5286371;27;20803;-51
2022/03/21 11:27:20;;;;;;;8.77;6.20;;;11.10;23.70;;;;;;5284436;27;20451;-49
2022/03/21 11:30:11;;;;;;;13.43;7.17;;;11.30;23.70;;;;;;5282174;28;20426;-51
2022/03/21 11:33:17;;;;;;;8.17;6.77;;;11.40;23.40;;;;;;5280850;27;20454;-50
2022/03/21 11:35:59;;;;;;;10.17;7.50;;;11.50;23.40;;;;;;5279373;28;20465;-50
2022/03/21 11:38:34;;;;;;;9.23;7.27;;;11.70;23.00;;;;;;5288498;28;20791;-51
2022/03/21 11:41:10;;;;;;;10.83;6.60;;;11.70;23.00;;;;;;5288391;28;20451;-52
2022/03/21 11:43:43;;;;;;;9.87;6.70;;;11.60;22.60;;;;;;5284548;27;20453;-50
2022/03/21 11:46:31;;;;;;;9.60;6.43;;;11.60;22.70;;;;;;5274364;28;20442;-49
2022/03/21 11:49:04;;;;;;;13.90;7.00;;;11.60;22.60;;;;;;5288543;28;20430;-51
2022/03/21 11:51:43;;;;;;;8.57;7.47;;;11.60;22.80;;;;;;5289144;27;20792;-52
2022/03/21 11:54:40;;;;;;;10.47;7.70;;;11.70;22.90;;;;;;5283405;27;20794;-52
2022/03/21 11:57:24;;;;;;;8.30;6.90;;;11.70;22.60;;;;;;5288577;27;20435;-49
2022/03/21 11:59:57;;;;;;;31.50;6.47;;;11.80;22.70;;;;;;5286852;27;20423;-49
2022/03/21 12:02:47;;;;;;;10.67;6.60;;;12.00;22.50;;;;;;5288661;28;20507;-50
2022/03/21 12:05:36;;;;;;;7.57;5.60;;;12.00;22.10;;;;;;5286952;28;20495;-51
2022/03/21 12:08:34;;;;;;;10.37;6.43;;;12.10;22.10;;;;;;5289873;27;20446;-51
2022/03/21 12:11:05;;;;;;;12.70;5.60;;;12.30;21.70;;;;;;5288842;28;20423;-49
2022/03/21 12:13:44;;;;;;;6.80;5.70;;;12.50;21.70;;;;;;5290266;28;20474;-49
2022/03/21 12:16:19;;;;;;;8.40;6.50;;;12.70;21.60;;;;;;5287022;28;20695;-49
2022/03/21 12:18:58;;;;;;;6.97;5.30;;;12.80;21.30;;;;;;5280285;27;20426;-49
2022/03/21 12:21:29;;;;;;;10.10;5.70;;;12.90;21.10;;;;;;5283765;27;20499;-50
2022/03/21 12:24:17;;;;;;;5.70;5.10;;;12.70;21.00;;;;;;5270526;28;20659;-50
2022/03/21 12:26:49;;;;;;;8.90;6.00;;;12.60;20.80;;;;;;5289268;27;20264;-49
2022/03/21 12:29:33;;;;;;;9.87;6.17;;;12.70;21.10;;;;;;5291068;28;20910;-50
2022/03/21 12:32:26;;;;;;;9.87;5.77;;;12.80;21.00;;;;;;5279637;28;20458;-49
2022/03/21 12:34:57;;;;;;;12.60;6.83;;;12.90;21.00;;;;;;5288979;27;20464;-50
2022/03/21 12:37:36;;;;;;;8.20;6.43;;;12.90;20.80;;;;;;5286173;28;20792;-50
2022/03/21 12:40:12;;;;;;;14.83;6.23;;;12.90;21.00;;;;;;5287314;28;20169;-50
2022/03/21 12:42:45;;;;;;;8.87;6.90;;;12.90;21.40;;;;;;5287294;27;20950;-50
2022/03/21 12:45:20;;;;;;;8.80;5.90;;;12.80;21.40;;;;;;5287619;28;20431;-49
2022/03/21 12:47:51;;;;;;;12.70;7.67;;;12.70;21.30;;;;;;5289540;28;20432;-49
2022/03/21 12:50:24;;;;;;;11.50;5.33;;;12.60;21.60;;;;;;5283353;28;20415;-49
2022/03/21 12:52:57;;;;;;;9.90;6.90;;;12.60;21.70;;;;;;5284831;28;20197;-50
2022/03/21 12:55:28;;;;;;;8.47;6.00;;;12.60;21.90;;;;;;5288232;28;20458;-51
2022/03/21 12:58:07;;;;;;;9.40;6.63;;;12.60;22.00;;;;;;5288129;28;20865;-51
2022/03/21 13:00:40;;;;;;;8.77;6.93;;;12.60;22.00;;;;;;5280725;28;20237;-51
2022/03/21 13:03:12;;;;;;;13.00;6.87;;;12.50;22.00;;;;;;5287091;28;20449;-49
2022/03/21 13:11:26;;;;;;;18.33;7.23;;;12.80;22.10;;;;;;5277317;28;20427;-51
2022/03/21 13:13:59;;;;;;;10.03;6.67;;;12.80;21.70;;;;;;5280666;27;20465;-50
2022/03/21 13:16:38;;;;;;;8.50;7.53;;;12.70;21.70;;;;;;5286127;27;20271;-52
2022/03/21 13:19:15;;;;;;;8.10;6.80;;;12.80;22.00;;;;;;5280304;27;20423;-50
2022/03/21 13:21:49;;;;;;;9.07;6.47;;;12.80;21.90;;;;;;5287696;28;20445;-50
2022/03/21 13:24:38;;;;;;;16.20;7.33;;;12.80;21.90;;;;;;5288158;28;20920;-50
2022/03/21 13:27:11;;;;;;;8.13;6.63;;;12.80;21.80;;;;;;5284173;28;20425;-49
2022/03/21 13:29:52;;;;;;;11.17;6.27;;;12.90;21.70;;;;;;5280296;28;20415;-48
2022/03/21 13:32:23;;;;;;;11.13;6.70;;;12.90;21.50;;;;;;5277063;28;20532;-52
2022/03/21 13:34:55;;;;;;;9.90;7.60;;;12.90;21.30;;;;;;5288879;28;20596;-51
2022/03/21 13:37:27;;;;;;;10.43;7.17;;;13.00;21.70;;;;;;5284798;28;20271;-49
2022/03/21 13:40:00;;;;;;;8.33;6.60;;;12.80;21.60;;;;;;5286855;28;20572;-49